Time;durP1;ratioP1;P1;durP2;ratioP2;P2;SDS_P1;SDS_P2;PMS_P1;PMS_P2;Temp;Humidity;BMP_temperature;BMP_pressure;BME280_temperature;BME280_humidity;BME280_pressure;Samples;Min_cycle;Max_cycle;Signal;HPM_P1;HPM_P2
2021/09/25 00:01:03;;;;;;;7.65;3.80;;;;;;;;;;4741994;30;20035;-83
2021/09/25 00:03:29;;;;;;;5.82;4.05;;;;;;;;;;4768418;30;20515;-82
2021/09/25 00:05:54;;;;;;;9.20;4.00;;;;;;;;;;4789429;29;20038;-81
2021/09/25 00:08:20;;;;;;;6.97;4.40;;;;;;;;;;4776750;29;20043;-83
2021/09/25 00:10:45;;;;;;;5.88;3.80;;;;;;;;;;4788353;29;20408;-83
2021/09/25 00:13:11;;;;;;;6.38;4.10;;;;;;;;;;4780638;29;20039;-84
2021/09/25 00:15:37;;;;;;;8.52;3.88;;;;;;;;;;4785876;29;20042;-84
2021/09/25 00:18:04;;;;;;;7.47;3.97;;;;;;;;;;4777958;29;20035;-81
2021/09/25 00:20:30;;;;;;;6.03;4.22;;;;;;;;;;4772961;29;20035;-83
2021/09/25 00:22:56;;;;;;;8.70;4.47;;;;;;;;;;4758537;30;20448;-81
2021/09/25 00:25:21;;;;;;;6.78;4.18;;;;;;;;;;4792527;29;20157;-84
2021/09/25 00:27:47;;;;;;;6.80;4.53;;;;;;;;;;4775012;29;20027;-83
2021/09/25 00:30:13;;;;;;;6.78;4.47;;;;;;;;;;4761886;30;20039;-81
2021/09/25 00:32:40;;;;;;;7.97;4.97;;;;;;;;;;4761436;30;20056;-82
2021/09/25 00:35:07;;;;;;;9.55;4.78;;;;;;;;;;4791964;29;20395;-81
2021/09/25 00:37:32;;;;;;;7.55;4.60;;;;;;;;;;4783720;29;20035;-82
2021/09/25 00:39:58;;;;;;;6.97;4.32;;;;;;;;;;4741623;29;20043;-84
2021/09/25 00:42:24;;;;;;;10.07;4.55;;;;;;;;;;4769304;30;20051;-84
2021/09/25 00:44:49;;;;;;;7.72;4.60;;;;;;;;;;4786007;29;20066;-82
2021/09/25 00:47:15;;;;;;;9.70;4.85;;;;;;;;;;4786383;30;20055;-84
2021/09/25 00:49:40;;;;;;;9.48;4.20;;;;;;;;;;4772409;29;20104;-82
2021/09/25 00:52:07;;;;;;;7.60;4.57;;;;;;;;;;4768303;29;20050;-84
2021/09/25 00:54:33;;;;;;;7.35;4.43;;;;;;;;;;4785864;29;20054;-84
2021/09/25 00:56:59;;;;;;;7.93;4.45;;;;;;;;;;4783345;29;20488;-83
2021/09/25 00:59:25;;;;;;;6.47;4.60;;;;;;;;;;4773927;30;20481;-82
2021/09/25 01:01:51;;;;;;;7.40;4.85;;;;;;;;;;4781172;29;20039;-81
2021/09/25 01:04:17;;;;;;;8.45;4.72;;;;;;;;;;4785419;29;20484;-82
2021/09/25 01:06:42;;;;;;;6.57;4.28;;;;;;;;;;4770413;30;20055;-83
2021/09/25 01:09:08;;;;;;;7.55;4.72;;;;;;;;;;4783550;29;20104;-81
2021/09/25 01:11:34;;;;;;;8.35;4.68;;;;;;;;;;4774160;30;20043;-81
2021/09/25 01:14:00;;;;;;;8.07;4.88;;;;;;;;;;4787949;29;20548;-84
2021/09/25 01:16:25;;;;;;;7.03;4.40;;;;;;;;;;4783755;29;20122;-81
2021/09/25 01:18:51;;;;;;;6.82;4.68;;;;;;;;;;4783980;30;20050;-84
2021/09/25 01:21:18;;;;;;;7.28;3.97;;;;;;;;;;4782620;29;20040;-84
2021/09/25 01:23:44;;;;;;;8.60;4.70;;;;;;;;;;4764783;30;20031;-82
2021/09/25 01:26:10;;;;;;;8.07;4.60;;;;;;;;;;4770477;30;20043;-82
2021/09/25 01:28:38;;;;;;;10.80;4.68;;;;;;;;;;4780012;29;20039;-81
2021/09/25 01:31:05;;;;;;;10.90;4.90;;;;;;;;;;4789696;29;20572;-81
2021/09/25 01:33:33;;;;;;;7.78;4.85;;;;;;;;;;4797762;29;20053;-84
2021/09/25 01:35:59;;;;;;;8.50;4.80;;;;;;;;;;4784999;29;20070;-81
2021/09/25 01:38:24;;;;;;;8.75;4.90;;;;;;;;;;4789082;29;20067;-83
2021/09/25 01:40:50;;;;;;;7.47;4.85;;;;;;;;;;4786236;29;20039;-81
2021/09/25 01:43:16;;;;;;;9.98;5.28;;;;;;;;;;4773739;30;20500;-84
2021/09/25 01:45:43;;;;;;;8.70;5.68;;;;;;;;;;4790114;29;20049;-81
2021/09/25 01:48:09;;;;;;;9.57;5.15;;;;;;;;;;4788880;29;20074;-83
2021/09/25 01:50:35;;;;;;;8.23;4.88;;;;;;;;;;4769546;30;20195;-81
2021/09/25 01:53:00;;;;;;;8.75;4.82;;;;;;;;;;4778925;29;20145;-84
2021/09/25 01:55:26;;;;;;;10.13;5.18;;;;;;;;;;4777028;30;20104;-83
2021/09/25 01:57:51;;;;;;;6.93;4.57;;;;;;;;;;4756658;30;20043;-84
2021/09/25 02:00:17;;;;;;;8.70;5.30;;;;;;;;;;4772852;29;20042;-84
2021/09/25 02:02:42;;;;;;;9.55;5.22;;;;;;;;;;4746243;30;20076;-83
2021/09/25 02:05:08;;;;;;;9.13;5.15;;;;;;;;;;4788613;29;20043;-84
2021/09/25 02:07:34;;;;;;;8.23;4.75;;;;;;;;;;4784493;29;20031;-83
2021/09/25 02:09:59;;;;;;;9.05;5.43;;;;;;;;;;4790615;29;20054;-84
2021/09/25 02:12:25;;;;;;;8.95;5.57;;;;;;;;;;4791837;29;20035;-84
2021/09/25 02:14:51;;;;;;;12.95;5.32;;;;;;;;;;4781379;29;20043;-81
2021/09/25 02:17:16;;;;;;;10.13;5.30;;;;;;;;;;4771113;29;20047;-83
2021/09/25 02:19:42;;;;;;;8.82;5.28;;;;;;;;;;4770984;30;20031;-81
2021/09/25 02:22:08;;;;;;;10.95;5.32;;;;;;;;;;4788855;30;20098;-84
2021/09/25 02:24:33;;;;;;;9.45;5.40;;;;;;;;;;4791549;29;20385;-84
2021/09/25 02:26:59;;;;;;;9.82;5.53;;;;;;;;;;4774579;30;20043;-81
2021/09/25 02:29:25;;;;;;;8.98;5.38;;;;;;;;;;4786072;29;20054;-81
2021/09/25 02:31:51;;;;;;;8.13;5.13;;;;;;;;;;4789197;29;20043;-81
2021/09/25 02:34:17;;;;;;;9.32;5.20;;;;;;;;;;4788661;29;20032;-84
2021/09/25 02:36:42;;;;;;;10.13;5.40;;;;;;;;;;4787644;29;20107;-84
2021/09/25 02:39:08;;;;;;;8.20;5.50;;;;;;;;;;4792364;29;20067;-84
2021/09/25 02:41:33;;;;;;;9.05;5.82;;;;;;;;;;4780392;30;20035;-82
2021/09/25 02:43:59;;;;;;;9.35;5.35;;;;;;;;;;4789564;30;20492;-84
2021/09/25 02:46:24;;;;;;;7.40;4.88;;;;;;;;;;4783921;29;20035;-82
2021/09/25 02:48:49;;;;;;;9.07;5.32;;;;;;;;;;4795572;29;20078;-81
2021/09/25 02:51:15;;;;;;;9.63;5.53;;;;;;;;;;4782556;29;20035;-84
2021/09/25 02:53:42;;;;;;;8.38;5.40;;;;;;;;;;4788050;29;20039;-82
2021/09/25 02:56:08;;;;;;;11.52;5.45;;;;;;;;;;4785748;29;20136;-81
2021/09/25 02:58:34;;;;;;;8.90;5.63;;;;;;;;;;4785482;29;20100;-84
2021/09/25 03:00:59;;;;;;;10.70;5.65;;;;;;;;;;4793409;29;20071;-84
2021/09/25 03:03:25;;;;;;;10.75;5.63;;;;;;;;;;4773813;30;20035;-82
2021/09/25 03:05:50;;;;;;;9.68;5.57;;;;;;;;;;4768261;30;20044;-84
2021/09/25 03:08:15;;;;;;;8.57;5.40;;;;;;;;;;4787916;29;20035;-81
2021/09/25 03:10:41;;;;;;;8.90;5.32;;;;;;;;;;4772016;29;20050;-84
2021/09/25 03:13:06;;;;;;;8.38;5.35;;;;;;;;;;4774729;30;20031;-81
2021/09/25 03:15:33;;;;;;;10.95;5.80;;;;;;;;;;4772149;30;20027;-82
2021/09/25 03:17:59;;;;;;;9.13;5.55;;;;;;;;;;4780253;29;20493;-84
2021/09/25 03:20:25;;;;;;;9.00;5.43;;;;;;;;;;4785435;29;20129;-83
2021/09/25 03:22:51;;;;;;;9.73;5.18;;;;;;;;;;4791016;29;20083;-83
2021/09/25 03:25:16;;;;;;;8.23;5.30;;;;;;;;;;4773176;29;20064;-82
2021/09/25 03:27:42;;;;;;;8.70;5.60;;;;;;;;;;4782960;29;20035;-82
2021/09/25 03:30:10;;;;;;;8.82;5.72;;;;;;;;;;4788006;29;20519;-82
2021/09/25 03:32:35;;;;;;;9.68;5.50;;;;;;;;;;4774273;29;20043;-82
2021/09/25 03:35:01;;;;;;;10.35;5.25;;;;;;;;;;4792115;29;20458;-82
2021/09/25 03:37:26;;;;;;;10.25;5.50;;;;;;;;;;4790355;29;20062;-83
2021/09/25 03:39:52;;;;;;;9.77;5.55;;;;;;;;;;4790339;29;20039;-81
2021/09/25 03:42:17;;;;;;;8.93;5.60;;;;;;;;;;4779577;29;20492;-81
2021/09/25 03:44:43;;;;;;;8.73;5.30;;;;;;;;;;4780206;29;20035;-83
2021/09/25 03:47:09;;;;;;;7.57;4.85;;;;;;;;;;4769865;29;20484;-81
2021/09/25 03:49:34;;;;;;;9.02;5.30;;;;;;;;;;4771896;29;20035;-83
2021/09/25 03:52:00;;;;;;;9.55;5.03;;;;;;;;;;4769463;29;20053;-84
2021/09/25 03:54:25;;;;;;;8.50;5.25;;;;;;;;;;4779362;30;20047;-82
2021/09/25 03:56:51;;;;;;;7.70;4.90;;;;;;;;;;4787314;29;20504;-84
2021/09/25 03:59:16;;;;;;;7.47;4.88;;;;;;;;;;4769984;30;20049;-82
2021/09/25 04:01:41;;;;;;;10.27;4.95;;;;;;;;;;4787056;30;20042;-81
2021/09/25 04:04:07;;;;;;;8.45;4.95;;;;;;;;;;4743621;30;20049;-84
2021/09/25 04:06:33;;;;;;;7.70;4.70;;;;;;;;;;4774449;30;20038;-82
2021/09/25 04:08:59;;;;;;;11.48;4.95;;;;;;;;;;4786086;29;20515;-82
2021/09/25 04:11:24;;;;;;;8.77;5.35;;;;;;;;;;4783463;29;20096;-84
2021/09/25 04:13:50;;;;;;;8.65;4.93;;;;;;;;;;4770017;30;20039;-81
2021/09/25 04:16:15;;;;;;;7.35;4.55;;;;;;;;;;4786684;29;20047;-82
2021/09/25 04:18:41;;;;;;;8.55;5.10;;;;;;;;;;4743468;30;20073;-82
2021/09/25 04:21:06;;;;;;;8.82;4.68;;;;;;;;;;4792004;29;20137;-82
2021/09/25 04:23:31;;;;;;;6.95;4.40;;;;;;;;;;4786946;29;20491;-83
2021/09/25 04:25:57;;;;;;;8.02;4.57;;;;;;;;;;4783027;30;20040;-81
2021/09/25 04:28:22;;;;;;;6.15;4.35;;;;;;;;;;4779580;29;20459;-82
2021/09/25 04:30:50;;;;;;;8.10;4.88;;;;;;;;;;4785246;29;20054;-83
2021/09/25 04:33:16;;;;;;;8.52;5.00;;;;;;;;;;4772161;30;20660;-84
2021/09/25 04:35:41;;;;;;;8.15;4.38;;;;;;;;;;4776220;29;20129;-84
2021/09/25 04:38:07;;;;;;;6.95;4.30;;;;;;;;;;4756940;30;20567;-83
2021/09/25 04:40:33;;;;;;;7.25;5.03;;;;;;;;;;4783915;29;20039;-84
2021/09/25 04:42:59;;;;;;;8.13;4.35;;;;;;;;;;4788474;29;20714;-82
2021/09/25 04:45:26;;;;;;;7.88;4.60;;;;;;;;;;4783889;29;20044;-82
2021/09/25 04:47:51;;;;;;;8.07;4.80;;;;;;;;;;4790026;29;20035;-84
2021/09/25 04:50:17;;;;;;;8.13;4.72;;;;;;;;;;4784218;29;20045;-81
2021/09/25 04:52:43;;;;;;;7.82;4.43;;;;;;;;;;4786755;29;20059;-82
2021/09/25 04:55:09;;;;;;;9.07;4.82;;;;;;;;;;4758199;30;20169;-83
2021/09/25 04:57:34;;;;;;;11.70;5.45;;;;;;;;;;4781690;29;20043;-81
2021/09/25 05:00:00;;;;;;;7.70;4.70;;;;;;;;;;4780023;29;20563;-82
2021/09/25 05:02:25;;;;;;;7.97;4.70;;;;;;;;;;4771726;29;20039;-81
2021/09/25 05:04:51;;;;;;;6.75;4.78;;;;;;;;;;4756901;30;20031;-82
2021/09/25 05:07:17;;;;;;;7.30;4.90;;;;;;;;;;4794105;29;20400;-82
2021/09/25 05:09:42;;;;;;;8.85;5.05;;;;;;;;;;4784224;29;20043;-83
2021/09/25 05:12:08;;;;;;;7.03;4.60;;;;;;;;;;4756417;30;20042;-81
2021/09/25 05:14:34;;;;;;;8.55;4.75;;;;;;;;;;4783903;29;20024;-82
2021/09/25 05:17:00;;;;;;;7.45;4.90;;;;;;;;;;4785551;29;20108;-84
2021/09/25 05:19:26;;;;;;;7.47;4.90;;;;;;;;;;4788402;29;20117;-83
2021/09/25 05:21:51;;;;;;;6.78;4.95;;;;;;;;;;4782034;29;20181;-83
2021/09/25 05:24:19;;;;;;;8.80;4.93;;;;;;;;;;4782165;29;20085;-83
2021/09/25 05:26:45;;;;;;;7.53;5.07;;;;;;;;;;4788494;29;20496;-82
2021/09/25 05:29:11;;;;;;;6.57;4.15;;;;;;;;;;4784303;29;20515;-84
2021/09/25 05:31:36;;;;;;;7.05;4.57;;;;;;;;;;4774006;30;20123;-81
2021/09/25 05:34:03;;;;;;;7.38;4.63;;;;;;;;;;4785614;29;20476;-82
2021/09/25 05:36:29;;;;;;;7.32;4.53;;;;;;;;;;4774407;30;20047;-82
2021/09/25 05:38:54;;;;;;;7.13;4.68;;;;;;;;;;4789611;30;20434;-84
2021/09/25 05:41:20;;;;;;;6.45;4.57;;;;;;;;;;4783559;29;21797;-82
2021/09/25 05:43:45;;;;;;;11.18;5.45;;;;;;;;;;4788775;30;20453;-81
2021/09/25 05:46:10;;;;;;;6.32;4.45;;;;;;;;;;4785183;29;20044;-81
2021/09/25 05:48:36;;;;;;;7.90;4.70;;;;;;;;;;4788902;29;20399;-83
2021/09/25 05:51:03;;;;;;;7.35;4.20;;;;;;;;;;4788715;29;20043;-84
2021/09/25 05:53:29;;;;;;;8.07;4.40;;;;;;;;;;4793459;29;20046;-83
2021/09/25 05:55:54;;;;;;;8.90;4.82;;;;;;;;;;4760539;30;20150;-82
2021/09/25 05:58:20;;;;;;;8.70;4.30;;;;;;;;;;4779705;30;20032;-82
2021/09/25 06:00:45;;;;;;;8.93;4.78;;;;;;;;;;4788275;29;20377;-83
2021/09/25 06:03:10;;;;;;;7.57;4.53;;;;;;;;;;4745508;30;20039;-81
2021/09/25 06:05:36;;;;;;;8.13;4.30;;;;;;;;;;4786748;29;20050;-83
2021/09/25 06:08:03;;;;;;;8.57;4.78;;;;;;;;;;4789014;29;20622;-81
2021/09/25 06:10:30;;;;;;;8.10;4.93;;;;;;;;;;4782988;29;20031;-81
2021/09/25 06:12:55;;;;;;;7.72;5.03;;;;;;;;;;4782049;30;20040;-81
2021/09/25 06:15:21;;;;;;;7.93;4.88;;;;;;;;;;4785190;29;20039;-81
2021/09/25 06:17:46;;;;;;;7.18;4.78;;;;;;;;;;4784781;29;20118;-81
2021/09/25 06:20:12;;;;;;;7.70;4.50;;;;;;;;;;4785222;29;20039;-84
2021/09/25 06:22:38;;;;;;;9.43;5.07;;;;;;;;;;4785317;29;20513;-83
2021/09/25 06:25:05;;;;;;;9.70;4.70;;;;;;;;;;4785205;29;20484;-82
2021/09/25 06:27:30;;;;;;;7.00;4.50;;;;;;;;;;4765446;30;20114;-82
2021/09/25 06:29:56;;;;;;;7.65;4.68;;;;;;;;;;4764562;29;20134;-81
2021/09/25 06:32:21;;;;;;;9.48;5.05;;;;;;;;;;4780479;29;20066;-82
2021/09/25 06:34:47;;;;;;;8.60;5.50;;;;;;;;;;4786665;29;20097;-82
2021/09/25 06:37:12;;;;;;;12.32;5.15;;;;;;;;;;4783693;29;20052;-81
2021/09/25 06:39:38;;;;;;;9.02;5.03;;;;;;;;;;4780421;29;20101;-84
2021/09/25 06:42:03;;;;;;;9.52;4.88;;;;;;;;;;4780421;29;20031;-81
2021/09/25 06:44:28;;;;;;;9.70;4.88;;;;;;;;;;4783897;29;20035;-81
2021/09/25 06:46:54;;;;;;;7.50;4.72;;;;;;;;;;4767390;30;20075;-82
2021/09/25 06:49:19;;;;;;;9.00;5.43;;;;;;;;;;4768595;29;20043;-82
2021/09/25 06:51:45;;;;;;;8.43;5.35;;;;;;;;;;4759638;30;20043;-84
2021/09/25 06:54:10;;;;;;;6.68;4.43;;;;;;;;;;4774939;30;20097;-83
2021/09/25 06:56:36;;;;;;;9.57;4.82;;;;;;;;;;4795269;29;20043;-81
2021/09/25 06:59:01;;;;;;;9.43;5.15;;;;;;;;;;4778461;29;20091;-81
2021/09/25 07:01:27;;;;;;;10.35;5.15;;;;;;;;;;4793868;29;20039;-84
2021/09/25 07:03:52;;;;;;;7.03;4.72;;;;;;;;;;4772390;30;20039;-83
2021/09/25 07:06:18;;;;;;;10.95;5.45;;;;;;;;;;4774184;30;20640;-81
2021/09/25 07:08:43;;;;;;;9.10;5.40;;;;;;;;;;4790514;29;20023;-84
2021/09/25 07:11:09;;;;;;;10.38;5.35;;;;;;;;;;4782051;29;20043;-81
2021/09/25 07:13:34;;;;;;;9.43;5.35;;;;;;;;;;4789212;29;20107;-84
2021/09/25 07:16:00;;;;;;;8.60;5.43;;;;;;;;;;4772323;30;20422;-82
2021/09/25 07:18:25;;;;;;;9.75;5.43;;;;;;;;;;4774254;30;20069;-83
2021/09/25 07:20:51;;;;;;;9.38;5.50;;;;;;;;;;4775668;30;20099;-84
2021/09/25 07:23:17;;;;;;;9.68;5.30;;;;;;;;;;4787313;29;20425;-83
2021/09/25 07:25:43;;;;;;;9.27;5.95;;;;;;;;;;4763213;30;20055;-81
2021/09/25 07:28:09;;;;;;;9.05;5.47;;;;;;;;;;4793060;29;20019;-84
2021/09/25 07:30:37;;;;;;;9.68;5.85;;;;;;;;;;4788087;29;20039;-83
2021/09/25 07:33:07;;;;;;;9.77;5.72;;;;;;;;;;4773744;29;20062;-81
2021/09/25 07:35:34;;;;;;;10.60;5.55;;;;;;;;;;4781431;29;20043;-81
2021/09/25 07:38:02;;;;;;;9.43;5.68;;;;;;;;;;4771438;30;20035;-81
2021/09/25 07:40:27;;;;;;;9.25;5.65;;;;;;;;;;4787118;29;20044;-83
2021/09/25 07:42:52;;;;;;;11.32;6.15;;;;;;;;;;4788564;29;20915;-81
2021/09/25 07:45:18;;;;;;;12.25;6.22;;;;;;;;;;4755712;30;20046;-83
2021/09/25 07:47:43;;;;;;;8.02;5.75;;;;;;;;;;4773606;30;20062;-81
2021/09/25 07:50:10;;;;;;;8.88;5.53;;;;;;;;;;4780605;29;20040;-82
2021/09/25 07:52:39;;;;;;;10.10;5.82;;;;;;;;;;4785590;29;20035;-82
2021/09/25 07:55:06;;;;;;;10.38;6.50;;;;;;;;;;4784338;29;20051;-81
2021/09/25 07:57:31;;;;;;;9.10;6.15;;;;;;;;;;4780848;29;20146;-84
2021/09/25 07:59:57;;;;;;;9.30;6.05;;;;;;;;;;4786875;29;20137;-82
2021/09/25 08:02:22;;;;;;;11.25;6.65;;;;;;;;;;4793119;29;20042;-84
2021/09/25 08:04:47;;;;;;;10.65;6.20;;;;;;;;;;4744778;29;20507;-81
2021/09/25 08:07:13;;;;;;;10.32;6.40;;;;;;;;;;4782212;29;20066;-84
2021/09/25 08:09:38;;;;;;;10.57;6.93;;;;;;;;;;4777786;29;20134;-84
2021/09/25 08:12:04;;;;;;;11.80;7.53;;;;;;;;;;4784017;29;20039;-81
2021/09/25 08:14:29;;;;;;;12.85;7.47;;;;;;;;;;4756003;30;20053;-82
2021/09/25 08:16:55;;;;;;;11.75;8.05;;;;;;;;;;4752900;30;20048;-81
2021/09/25 08:19:20;;;;;;;12.68;8.45;;;;;;;;;;4765010;29;20079;-81
2021/09/25 08:21:46;;;;;;;11.73;7.43;;;;;;;;;;4764260;29;20039;-83
2021/09/25 08:24:12;;;;;;;14.02;8.18;;;;;;;;;;4777679;29;20089;-83
2021/09/25 08:26:37;;;;;;;12.90;7.25;;;;;;;;;;4763909;30;20035;-82
2021/09/25 08:29:04;;;;;;;13.60;7.93;;;;;;;;;;4760826;29;20065;-82
2021/09/25 08:31:29;;;;;;;13.50;8.05;;;;;;;;;;4776300;29;20046;-82
2021/09/25 08:33:55;;;;;;;12.98;8.35;;;;;;;;;;4772120;29;20410;-84
2021/09/25 08:36:20;;;;;;;12.55;7.85;;;;;;;;;;4746930;30;20101;-82
2021/09/25 08:38:46;;;;;;;11.68;7.10;;;;;;;;;;4782666;29;20031;-83
2021/09/25 08:41:11;;;;;;;16.05;8.88;;;;;;;;;;4775368;29;20501;-81
2021/09/25 08:43:37;;;;;;;14.43;8.80;;;;;;;;;;4782629;29;20039;-81
2021/09/25 08:46:05;;;;;;;14.77;8.10;;;;;;;;;;4765105;30;20035;-81
2021/09/25 08:48:32;;;;;;;16.05;8.45;;;;;;;;;;4782157;29;20636;-83
2021/09/25 08:50:58;;;;;;;14.23;9.95;;;;;;;;;;4764560;29;20566;-81
2021/09/25 08:53:24;;;;;;;12.50;6.78;;;;;;;;;;4783568;29;20045;-84
2021/09/25 08:55:50;;;;;;;14.52;9.05;;;;;;;;;;4771937;30;20786;-82
2021/09/25 08:58:16;;;;;;;16.80;9.25;;;;;;;;;;4774801;29;20113;-81
2021/09/25 09:00:52;;;;;;;16.23;9.55;;;;;;;;;;4783024;29;20027;-84
2021/09/25 09:03:38;;;;;;;18.25;10.00;;;;;;;;;;4779584;29;20063;-83
2021/09/25 09:06:11;;;;;;;16.55;9.52;;;;;;;;;;4765988;30;20381;-84
2021/09/25 09:08:38;;;;;;;17.92;10.48;;;;;;;;;;4792947;29;20050;-81
2021/09/25 09:11:06;;;;;;;15.43;9.48;;;;;;;;;;4791737;29;20082;-84
2021/09/25 09:13:32;;;;;;;15.73;8.77;;;;;;;;;;4772766;30;20073;-84
2021/09/25 09:16:01;;;;;;;17.38;9.98;;;;;;;;;;4793073;29;20023;-81
2021/09/25 09:18:26;;;;;;;14.80;9.73;;;;;;;;;;4793476;29;20039;-83
2021/09/25 09:21:04;;;;;;;16.88;9.10;;;;;;;;;;4772426;30;20504;-84
2021/09/25 09:23:31;;;;;;;16.30;9.18;;;;;;;;;;4791689;29;20484;-84
2021/09/25 09:25:58;;;;;;;16.80;9.50;;;;;;;;;;4774350;29;20039;-85
2021/09/25 09:28:32;;;;;;;19.67;10.27;;;;;;;;;;4790764;29;20035;-85
2021/09/25 09:31:00;;;;;;;18.67;10.32;;;;;;;;;;4794084;29;20106;-84
2021/09/25 09:33:35;;;;;;;18.90;10.30;;;;;;;;;;4788587;29;20067;-84
2021/09/25 09:36:41;;;;;;;18.00;10.85;;;;;;;;;;4774740;29;20034;-83
2021/09/25 09:39:14;;;;;;;18.10;10.57;;;;;;;;;;4770282;29;20075;-82
2021/09/25 09:41:53;;;;;;;19.02;10.07;;;;;;;;;;4786801;29;20042;-84
2021/09/25 09:44:29;;;;;;;16.88;10.27;;;;;;;;;;4791181;30;20031;-83
2021/09/25 09:46:58;;;;;;;15.75;10.32;;;;;;;;;;4775817;30;20058;-83
2021/09/25 09:49:27;;;;;;;20.20;11.38;;;;;;;;;;4792216;29;20066;-84
2021/09/25 09:52:09;;;;;;;18.92;10.57;;;;;;;;;;4793459;29;20027;-81
2021/09/25 09:54:37;;;;;;;17.55;10.63;;;;;;;;;;4783444;29;20039;-84
2021/09/25 09:57:07;;;;;;;19.98;11.75;;;;;;;;;;4793800;29;20503;-84
2021/09/25 09:59:32;;;;;;;17.23;11.50;;;;;;;;;;4791769;29;20031;-83
2021/09/25 10:01:58;;;;;;;18.70;10.65;;;;;;;;;;4787293;30;20131;-84
2021/09/25 10:04:24;;;;;;;16.85;10.52;;;;;;;;;;4786061;29;20035;-84
2021/09/25 10:06:51;;;;;;;17.48;11.25;;;;;;;;;;4789914;29;20091;-82
2021/09/25 10:09:20;;;;;;;26.13;11.80;;;;;;;;;;4784380;29;20453;-81
2021/09/25 10:11:54;;;;;;;19.67;11.82;;;;;;;;;;4791998;29;20065;-85
2021/09/25 10:14:22;;;;;;;16.75;10.77;;;;;;;;;;4779898;29;20039;-82
2021/09/25 10:16:49;;;;;;;15.65;10.23;;;;;;;;;;4776873;29;20410;-81
2021/09/25 10:19:17;;;;;;;16.95;10.82;;;;;;;;;;4790774;29;20408;-82
2021/09/25 10:21:45;;;;;;;16.58;10.25;;;;;;;;;;4770501;30;20059;-82
2021/09/25 10:24:34;;;;;;;18.58;11.27;;;;;;;;;;4789823;29;20067;-82
2021/09/25 10:27:01;;;;;;;18.90;11.10;;;;;;;;;;4790582;29;20039;-83
2021/09/25 10:29:27;;;;;;;16.25;10.80;;;;;;;;;;4791525;29;20030;-83
2021/09/25 10:32:19;;;;;;;20.58;12.15;;;;;;;;;;4786094;30;20476;-81
2021/09/25 10:34:56;;;;;;;20.00;11.27;;;;;;;;;;4790989;29;20032;-82
2021/09/25 10:37:22;;;;;;;17.80;11.02;;;;;;;;;;4792039;29;20039;-83
2021/09/25 10:39:58;;;;;;;20.15;12.07;;;;;;;;;;4794900;29;20026;-84
2021/09/25 10:42:39;;;;;;;18.52;11.50;;;;;;;;;;4791368;29;20058;-84
2021/09/25 10:45:09;;;;;;;18.95;12.02;;;;;;;;;;4784198;30;20031;-82
2021/09/25 10:47:35;;;;;;;16.30;11.45;;;;;;;;;;4789137;29;20048;-83
2021/09/25 10:50:01;;;;;;;20.40;11.32;;;;;;;;;;4792104;29;20031;-83
2021/09/25 10:52:51;;;;;;;18.85;11.70;;;;;;;;;;4761319;30;20039;-82
2021/09/25 10:55:29;;;;;;;18.15;11.05;;;;;;;;;;4782264;29;20063;-82
2021/09/25 10:58:18;;;;;;;18.42;11.10;;;;;;;;;;4789674;29;20039;-84
2021/09/25 11:00:54;;;;;;;17.63;10.30;;;;;;;;;;4792754;29;20039;-84
2021/09/25 11:06:14;;;;;;;18.38;11.18;;;;;;;;;;4794021;29;20092;-82
2021/09/25 11:09:03;;;;;;;19.75;11.23;;;;;;;;;;4795588;29;20177;-81
2021/09/25 11:11:45;;;;;;;17.85;10.85;;;;;;;;;;4786838;29;20050;-83
2021/09/25 11:14:18;;;;;;;19.10;10.32;;;;;;;;;;4791775;29;20035;-83
2021/09/25 11:17:05;;;;;;;18.20;10.73;;;;;;;;;;4791360;29;20046;-82
2021/09/25 11:19:37;;;;;;;15.80;9.85;;;;;;;;;;4800217;29;20129;-82
2021/09/25 11:22:34;;;;;;;17.10;10.77;;;;;;;;;;4771004;30;20039;-83
2021/09/25 11:25:09;;;;;;;14.52;9.60;;;;;;;;;;4791838;29;20542;-81
2021/09/25 11:27:44;;;;;;;18.00;10.50;;;;;;;;;;4789799;29;20027;-81
2021/09/25 11:30:21;;;;;;;18.08;10.40;;;;;;;;;;4785515;29;20027;-83
2021/09/25 11:32:58;;;;;;;17.25;10.88;;;;;;;;;;4789806;29;20027;-81
2021/09/25 11:35:35;;;;;;;17.25;10.45;;;;;;;;;;4790683;29;20108;-81
2021/09/25 11:38:01;;;;;;;16.75;10.85;;;;;;;;;;4788967;30;20039;-83
2021/09/25 11:40:28;;;;;;;16.52;10.82;;;;;;;;;;4790717;29;20035;-82
2021/09/25 11:43:21;;;;;;;16.33;10.25;;;;;;;;;;4789615;30;20594;-82
2021/09/25 11:45:49;;;;;;;19.17;10.63;;;;;;;;;;4772888;30;20047;-81
2021/09/25 11:48:18;;;;;;;16.83;11.32;;;;;;;;;;4783608;30;20283;-85
2021/09/25 11:50:53;;;;;;;14.07;10.25;;;;;;;;;;4794029;29;20038;-83
2021/09/25 11:53:31;;;;;;;17.33;11.65;;;;;;;;;;5085227;27;20394;-81
2021/09/25 11:56:00;;;;;;;18.35;11.07;;;;;;;;;;5059181;28;20041;-80
2021/09/25 11:58:26;;;;;;;18.50;10.85;;;;;;;;;;5065822;28;20031;-80
2021/09/25 12:00:55;;;;;;;18.45;11.25;;;;;;;;;;5072080;28;20107;-83
2021/09/25 12:03:22;;;;;;;17.60;11.52;;;;;;;;;;5073195;28;20472;-80
2021/09/25 12:05:53;;;;;;;17.98;11.45;;;;;;;;;;5050531;28;20497;-80
2021/09/25 12:08:21;;;;;;;18.58;11.30;;;;;;;;;;5052575;28;20025;-81
2021/09/25 12:10:57;;;;;;;18.33;10.00;;;;;;;;;;5073650;28;20024;-80
2021/09/25 12:13:28;;;;;;;18.30;10.80;;;;;;;;;;5043863;28;20012;-82
2021/09/25 12:16:06;;;;;;;17.65;11.05;;;;;;;;;;5038550;28;20533;-80
2021/09/25 12:18:42;;;;;;;17.60;11.50;;;;;;;;;;5048553;28;20020;-82
2021/09/25 12:21:10;;;;;;;15.75;10.93;;;;;;;;;;5053586;28;20032;-80
2021/09/25 12:23:42;;;;;;;18.27;10.50;;;;;;;;;;5063600;28;20041;-82
2021/09/25 12:26:09;;;;;;;18.08;10.60;;;;;;;;;;5061030;28;20031;-80
2021/09/25 12:28:48;;;;;;;18.17;10.65;;;;;;;;;;5062561;28;20515;-80
2021/09/25 12:31:17;;;;;;;16.63;10.40;;;;;;;;;;5066504;28;20067;-81
2021/09/25 12:33:59;;;;;;;15.93;10.55;;;;;;;;;;5053782;28;20054;-82
2021/09/25 12:36:32;;;;;;;16.92;10.35;;;;;;;;;;5068261;28;20054;-83
2021/09/25 12:39:07;;;;;;;17.88;10.80;;;;;;;;;;5052974;28;20024;-80
2021/09/25 12:41:36;;;;;;;15.18;9.98;;;;;;;;;;5068920;28;20025;-80
2021/09/25 12:44:05;;;;;;;13.98;9.60;;;;;;;;;;5046473;28;20158;-81
2021/09/25 12:46:36;;;;;;;16.02;9.98;;;;;;;;;;5057558;28;20832;-82
2021/09/25 12:49:13;;;;;;;13.43;9.50;;;;;;;;;;5058692;28;20032;-80
2021/09/25 12:51:51;;;;;;;16.92;9.82;;;;;;;;;;5052095;28;20182;-83
2021/09/25 12:54:20;;;;;;;17.58;9.77;;;;;;;;;;5041248;28;20141;-82
2021/09/25 12:56:48;;;;;;;15.20;9.88;;;;;;;;;;5041740;28;20025;-82
2021/09/25 12:59:17;;;;;;;15.48;9.70;;;;;;;;;;5038096;28;20034;-83
2021/09/25 13:01:46;;;;;;;13.38;9.55;;;;;;;;;;5063619;28;20025;-82
2021/09/25 13:04:16;;;;;;;14.55;9.73;;;;;;;;;;5037278;28;20057;-80
2021/09/25 13:06:43;;;;;;;14.68;9.98;;;;;;;;;;5021231;28;20034;-82
2021/09/25 13:09:08;;;;;;;14.38;9.43;;;;;;;;;;5033865;28;20042;-82
2021/09/25 13:11:34;;;;;;;17.20;9.70;;;;;;;;;;5032008;28;20559;-80
2021/09/25 13:14:14;;;;;;;15.23;9.48;;;;;;;;;;5037742;28;20080;-83
2021/09/25 13:16:41;;;;;;;14.02;9.50;;;;;;;;;;5037714;28;20036;-82
2021/09/25 13:19:07;;;;;;;13.25;8.85;;;;;;;;;;5034095;28;20447;-81
2021/09/25 13:21:33;;;;;;;15.52;8.77;;;;;;;;;;5039804;28;20473;-79
2021/09/25 13:24:08;;;;;;;13.45;8.70;;;;;;;;;;5033167;28;20040;-81
2021/09/25 13:26:36;;;;;;;12.90;8.77;;;;;;;;;;5027850;28;20053;-81
2021/09/25 13:29:03;;;;;;;18.60;9.90;;;;;;;;;;5024875;28;20072;-80
2021/09/25 13:31:29;;;;;;;17.88;10.23;;;;;;;;;;5044738;28;20034;-80
2021/09/25 13:33:54;;;;;;;18.60;9.80;;;;;;;;;;5030701;28;20042;-81
2021/09/25 13:36:21;;;;;;;16.48;10.27;;;;;;;;;;5025273;28;20060;-84
2021/09/25 13:38:48;;;;;;;16.55;10.15;;;;;;;;;;5020288;28;20123;-81
2021/09/25 13:41:13;;;;;;;16.55;9.68;;;;;;;;;;5025009;28;20374;-82
2021/09/25 13:43:39;;;;;;;13.77;8.88;;;;;;;;;;5024893;28;20026;-82
2021/09/25 13:46:04;;;;;;;15.70;8.95;;;;;;;;;;5032365;28;20085;-80
2021/09/25 13:48:30;;;;;;;18.02;10.07;;;;;;;;;;5021895;28;20104;-79
2021/09/25 13:50:55;;;;;;;16.95;9.50;;;;;;;;;;5028128;28;20475;-82
2021/09/25 13:53:21;;;;;;;15.65;9.05;;;;;;;;;;5037594;28;20060;-80
2021/09/25 13:55:46;;;;;;;17.20;8.95;;;;;;;;;;5032547;28;20029;-80
2021/09/25 13:58:12;;;;;;;13.38;7.88;;;;;;;;;;5005962;28;20038;-81
2021/09/25 14:00:41;;;;;;;12.15;7.63;;;;;;;;;;5034922;28;20851;-82
2021/09/25 14:03:06;;;;;;;10.25;7.53;;;;;;;;;;5026773;28;20060;-80
2021/09/25 14:05:32;;;;;;;15.25;8.35;;;;;;;;;;5035325;28;20061;-83
2021/09/25 14:07:57;;;;;;;13.15;8.40;;;;;;;;;;5039202;28;20030;-81
2021/09/25 14:10:23;;;;;;;13.52;8.55;;;;;;;;;;5011687;28;20835;-81
2021/09/25 14:12:48;;;;;;;12.73;8.13;;;;;;;;;;5003469;28;20061;-81
2021/09/25 14:15:14;;;;;;;12.18;7.65;;;;;;;;;;5025665;28;20405;-79
2021/09/25 14:17:39;;;;;;;14.18;8.18;;;;;;;;;;5022106;28;20124;-80
2021/09/25 14:20:05;;;;;;;11.43;7.60;;;;;;;;;;5017095;28;20030;-81
2021/09/25 14:22:35;;;;;;;13.15;7.57;;;;;;;;;;4999334;28;20026;-81
2021/09/25 14:25:01;;;;;;;12.90;7.55;;;;;;;;;;5034544;28;20421;-80
2021/09/25 14:27:27;;;;;;;15.48;8.23;;;;;;;;;;5016067;28;20056;-82
2021/09/25 14:29:53;;;;;;;13.68;7.80;;;;;;;;;;5005324;28;20056;-82
2021/09/25 14:32:19;;;;;;;11.60;7.20;;;;;;;;;;5032634;28;20037;-80
2021/09/25 14:34:45;;;;;;;10.57;5.88;;;;;;;;;;5031993;28;20207;-81
2021/09/25 14:37:10;;;;;;;11.10;6.10;;;;;;;;;;5021341;28;20060;-81
2021/09/25 14:39:36;;;;;;;10.40;6.25;;;;;;;;;;5029498;28;20384;-80